createdAt,value
2022-07-25T00:00:52.206Z,0.00
2022-07-25T00:01:52.274Z,0.00
2022-07-25T00:02:52.175Z,0.00
2022-07-25T00:03:52.235Z,0.00
2022-07-25T00:04:52.228Z,0.00
2022-07-25T00:05:52.121Z,0.00
2022-07-25T00:06:52.102Z,0.00
2022-07-25T00:07:52.088Z,0.00
2022-07-25T00:08:52.074Z,0.00
2022-07-25T00:09:52.053Z,0.00
2022-07-25T00:10:52.037Z,0.00
2022-07-25T00:11:52.020Z,0.00
2022-07-25T00:12:52.001Z,0.00
2022-07-25T00:13:51.985Z,0.00
2022-07-25T00:14:51.970Z,0.00
2022-07-25T00:15:52.035Z,0.00
2022-07-25T00:16:51.932Z,0.00
2022-07-25T00:17:51.919Z,0.00
2022-07-25T00:18:51.899Z,0.00
2022-07-25T00:19:51.887Z,0.00
2022-07-25T00:20:51.871Z,0.00
2022-07-25T00:21:51.863Z,0.00
2022-07-25T00:22:51.837Z,0.00
2022-07-25T00:23:51.821Z,0.00
2022-07-25T00:24:51.796Z,0.00
2022-07-25T00:25:51.781Z,0.00
2022-07-25T00:26:51.764Z,0.00
2022-07-25T00:27:51.755Z,0.00
2022-07-25T00:28:51.728Z,0.00
2022-07-25T00:29:51.712Z,0.00
2022-07-25T00:30:51.809Z,0.00
2022-07-25T00:31:51.748Z,0.00
2022-07-25T00:32:51.661Z,0.00
2022-07-25T00:33:51.647Z,0.00
2022-07-25T00:34:51.633Z,0.00
2022-07-25T00:35:51.609Z,0.00
2022-07-25T00:36:51.592Z,0.00
2022-07-25T00:37:51.574Z,0.00
2022-07-25T00:38:51.556Z,0.00
2022-07-25T00:39:51.545Z,0.00
2022-07-25T00:40:54.308Z,0.00
2022-07-25T00:41:51.510Z,0.00
2022-07-25T00:42:51.489Z,0.00
2022-07-25T00:43:51.472Z,0.00
2022-07-25T00:44:51.455Z,0.00
2022-07-25T00:45:51.442Z,0.00
2022-07-25T00:46:51.468Z,0.00
2022-07-25T00:47:51.406Z,0.00
2022-07-25T00:48:51.495Z,0.00
2022-07-25T00:49:51.371Z,0.00
2022-07-25T00:50:51.355Z,0.00
2022-07-25T00:51:51.336Z,0.00
2022-07-25T00:52:51.317Z,0.00
2022-07-25T00:53:51.301Z,0.00
2022-07-25T00:54:51.283Z,0.00
2022-07-25T00:55:51.271Z,0.00
2022-07-25T00:56:51.251Z,0.00
2022-07-25T00:57:51.235Z,0.00
2022-07-25T00:58:51.217Z,0.00
2022-07-25T00:59:51.199Z,0.00
2022-07-25T01:00:51.187Z,0.00
2022-07-25T01:01:51.205Z,0.00
2022-07-25T01:02:51.197Z,0.00
2022-07-25T01:03:51.131Z,0.00
2022-07-25T01:04:51.105Z,0.00
2022-07-25T01:05:53.679Z,0.00
2022-07-25T01:06:51.079Z,0.00
2022-07-25T01:07:51.064Z,0.00
2022-07-25T01:08:51.044Z,0.00
2022-07-25T01:09:51.028Z,0.00
2022-07-25T01:10:51.068Z,0.00
2022-07-25T01:11:50.993Z,0.00
2022-07-25T01:12:50.973Z,0.00
2022-07-25T01:13:50.969Z,0.00
2022-07-25T01:14:50.940Z,0.00
2022-07-25T01:15:50.995Z,0.00
2022-07-25T01:16:50.908Z,0.00
2022-07-25T01:17:50.890Z,0.00
2022-07-25T01:18:50.870Z,0.00
2022-07-25T01:19:50.858Z,0.00
2022-07-25T01:20:50.834Z,0.00
2022-07-25T01:21:50.823Z,0.00
2022-07-25T01:22:50.802Z,0.00
2022-07-25T01:23:50.784Z,0.00
2022-07-25T01:24:50.768Z,0.00
2022-07-25T01:25:50.751Z,0.00
2022-07-25T01:26:50.736Z,0.00
2022-07-25T01:27:55.137Z,0.00
2022-07-25T01:28:50.713Z,0.00
2022-07-25T01:29:50.682Z,0.00
2022-07-25T01:30:50.716Z,0.00
2022-07-25T01:31:50.651Z,0.00
2022-07-25T01:32:50.629Z,0.00
2022-07-25T01:33:50.612Z,0.00
2022-07-25T01:34:50.595Z,0.00
2022-07-25T01:35:50.578Z,0.00
2022-07-25T01:36:50.560Z,0.00
2022-07-25T01:37:50.543Z,0.00
2022-07-25T01:38:50.525Z,0.00
2022-07-25T01:39:50.509Z,0.00
2022-07-25T01:40:50.489Z,0.00
2022-07-25T01:41:50.473Z,0.00
2022-07-25T01:42:50.456Z,0.00
2022-07-25T01:43:50.438Z,0.00
2022-07-25T01:44:50.419Z,0.00
2022-07-25T01:45:50.432Z,0.00
2022-07-25T01:46:50.389Z,0.00
2022-07-25T01:47:50.367Z,0.00
2022-07-25T01:48:50.400Z,0.00
2022-07-25T01:49:50.330Z,0.00
2022-07-25T01:50:50.312Z,0.00
2022-07-25T01:51:50.296Z,0.00
2022-07-25T01:52:50.287Z,0.00
2022-07-25T01:53:50.266Z,0.00
2022-07-25T01:54:50.247Z,0.00
2022-07-25T01:55:50.228Z,0.00
2022-07-25T01:56:50.211Z,0.00
2022-07-25T01:57:50.423Z,0.00
2022-07-25T01:58:50.177Z,0.00
2022-07-25T01:59:50.158Z,0.00
2022-07-25T02:00:50.142Z,0.00
2022-07-25T02:01:50.225Z,0.00
2022-07-25T02:02:50.105Z,0.00
2022-07-25T02:03:50.091Z,0.00
2022-07-25T02:04:50.156Z,0.00
2022-07-25T02:05:50.053Z,0.00
2022-07-25T02:06:50.039Z,0.00
2022-07-25T02:07:50.018Z,0.00
2022-07-25T02:08:50.043Z,0.00
2022-07-25T02:09:54.751Z,0.00
2022-07-25T02:10:49.963Z,0.00
2022-07-25T02:11:49.947Z,0.00
2022-07-25T02:12:49.935Z,0.00
2022-07-25T02:13:49.914Z,0.00
2022-07-25T02:14:49.899Z,0.00
2022-07-25T02:15:49.877Z,0.00
2022-07-25T02:16:49.976Z,0.00
2022-07-25T02:17:49.845Z,0.00
2022-07-25T02:18:49.823Z,0.00
2022-07-25T02:19:49.809Z,0.00
2022-07-25T02:20:49.788Z,0.00
2022-07-25T02:21:49.772Z,0.00
2022-07-25T02:22:49.760Z,0.00
2022-07-25T02:23:49.737Z,0.00
2022-07-25T02:24:49.716Z,0.00
2022-07-25T02:25:49.701Z,0.00
2022-07-25T02:26:49.691Z,0.00
2022-07-25T02:27:49.673Z,0.00
2022-07-25T02:28:49.659Z,0.00
2022-07-25T02:29:49.663Z,0.00
2022-07-25T02:30:49.652Z,0.00
2022-07-25T02:31:49.599Z,0.00
2022-07-25T02:32:49.586Z,0.00
2022-07-25T02:33:49.560Z,0.00
2022-07-25T02:34:49.547Z,0.00
2022-07-25T02:35:49.533Z,0.00
2022-07-25T02:36:49.505Z,4.00
2022-07-25T02:37:49.490Z,4.00
2022-07-25T02:38:49.473Z,4.00
2022-07-25T02:39:49.455Z,4.00
2022-07-25T02:40:49.438Z,4.00
2022-07-25T02:41:49.420Z,4.00
2022-07-25T02:42:49.405Z,4.00
2022-07-25T02:43:49.384Z,0.00
2022-07-25T02:44:49.368Z,0.00
2022-07-25T02:45:49.397Z,0.00
2022-07-25T02:46:49.333Z,0.00
2022-07-25T02:47:49.313Z,0.00
2022-07-25T02:48:49.397Z,0.00
2022-07-25T02:49:49.279Z,0.00
2022-07-25T02:50:49.261Z,0.00
2022-07-25T02:51:49.243Z,0.00
2022-07-25T02:52:49.225Z,0.00
2022-07-25T02:54:08.879Z,0.00
2022-07-25T02:54:49.189Z,0.00
2022-07-25T02:55:49.174Z,0.00
2022-07-25T02:56:49.155Z,0.00
2022-07-25T02:57:49.137Z,0.00
2022-07-25T02:58:49.119Z,0.00
2022-07-25T02:59:49.101Z,0.00
2022-07-25T03:00:49.130Z,0.00
2022-07-25T03:01:49.175Z,0.00
2022-07-25T03:02:49.049Z,0.00
2022-07-25T03:03:49.130Z,0.00
2022-07-25T03:04:49.013Z,0.00
2022-07-25T03:05:48.994Z,0.00
2022-07-25T03:06:48.986Z,0.00
2022-07-25T03:07:48.958Z,0.00
2022-07-25T03:08:48.940Z,0.00
2022-07-25T03:09:48.921Z,0.00
2022-07-25T03:10:48.905Z,0.00
2022-07-25T03:11:48.888Z,0.00
2022-07-25T03:12:48.869Z,0.00
2022-07-25T03:13:48.856Z,0.00
2022-07-25T03:14:48.833Z,0.00
2022-07-25T03:15:48.817Z,0.00
2022-07-25T03:16:48.910Z,4.00
2022-07-25T03:17:48.781Z,4.00
2022-07-25T03:18:48.765Z,0.00
2022-07-25T03:19:48.746Z,0.00
2022-07-25T03:20:48.728Z,0.00
2022-07-25T03:21:48.711Z,4.00
2022-07-25T03:22:49.133Z,4.00
2022-07-25T03:23:52.498Z,0.00
2022-07-25T03:24:48.659Z,4.00
2022-07-25T03:25:48.638Z,4.00
2022-07-25T03:26:48.620Z,0.00
2022-07-25T03:27:48.604Z,4.00
2022-07-25T03:28:48.586Z,4.00
2022-07-25T03:29:48.566Z,4.00
2022-07-25T03:30:48.548Z,4.00
2022-07-25T03:31:48.626Z,8.00
2022-07-25T03:32:48.512Z,8.00
2022-07-25T03:33:48.498Z,8.00
2022-07-25T03:34:48.479Z,8.00
2022-07-25T03:35:48.458Z,8.00
2022-07-25T03:36:48.439Z,8.00
2022-07-25T03:37:48.427Z,8.00
2022-07-25T03:38:48.407Z,8.00
2022-07-25T03:39:48.390Z,12.00
2022-07-25T03:40:48.371Z,12.00
2022-07-25T03:41:48.351Z,16.00
2022-07-25T03:42:48.335Z,16.00
2022-07-25T03:43:48.317Z,16.00
2022-07-25T03:44:48.297Z,16.00
2022-07-25T03:45:48.326Z,20.00
2022-07-25T03:46:48.265Z,20.00
2022-07-25T03:47:48.248Z,24.00
2022-07-25T03:48:48.300Z,24.00
2022-07-25T03:49:48.211Z,24.00
2022-07-25T03:50:48.207Z,28.00
2022-07-25T03:51:48.172Z,32.00
2022-07-25T03:52:48.155Z,32.00
2022-07-25T03:53:48.137Z,36.00
2022-07-25T03:54:48.121Z,36.00
2022-07-25T03:55:48.101Z,40.00
2022-07-25T03:56:48.084Z,40.00
2022-07-25T03:57:48.066Z,44.00
2022-07-25T03:58:48.049Z,48.00
2022-07-25T03:59:48.028Z,48.00
2022-07-25T04:00:48.096Z,52.00
2022-07-25T04:01:48.024Z,56.00
2022-07-25T04:02:48.048Z,56.00
2022-07-25T04:03:47.959Z,60.00
2022-07-25T04:04:47.938Z,64.00
2022-07-25T04:05:47.958Z,64.00
2022-07-25T04:06:47.909Z,68.00
2022-07-25T04:07:47.886Z,72.00
2022-07-25T04:08:47.870Z,72.00
2022-07-25T04:09:47.853Z,76.00
2022-07-25T04:10:47.835Z,80.00
2022-07-25T04:11:47.816Z,88.00
2022-07-25T04:12:47.795Z,88.00
2022-07-25T04:13:47.788Z,92.00
2022-07-25T04:14:47.762Z,96.00
2022-07-25T04:15:47.859Z,100.00
2022-07-25T04:16:47.778Z,100.00
2022-07-25T04:17:47.705Z,100.00
2022-07-25T04:18:47.689Z,104.00
2022-07-25T04:19:47.669Z,108.00
2022-07-25T04:20:47.658Z,112.00
2022-07-25T04:21:47.634Z,116.00
2022-07-25T04:22:47.616Z,120.00
2022-07-25T04:23:47.597Z,124.00
2022-07-25T04:24:47.587Z,132.00
2022-07-25T04:25:47.578Z,136.00
2022-07-25T04:26:47.544Z,136.00
2022-07-25T04:27:47.529Z,144.00
2022-07-25T04:28:47.507Z,148.00
2022-07-25T04:29:47.493Z,148.00
2022-07-25T04:30:47.472Z,156.00
2022-07-25T04:31:47.539Z,156.00
2022-07-25T04:32:47.441Z,160.00
2022-07-25T04:33:47.417Z,168.00
2022-07-25T04:34:47.402Z,172.00
2022-07-25T04:35:47.382Z,180.00
2022-07-25T04:36:47.365Z,184.00
2022-07-25T04:37:47.344Z,188.00
2022-07-25T04:38:47.329Z,192.00
2022-07-25T04:39:47.309Z,200.00
2022-07-25T04:40:47.293Z,204.00
2022-07-25T04:41:47.289Z,204.00
2022-07-25T04:42:47.257Z,208.00
2022-07-25T04:43:48.864Z,212.00
2022-07-25T04:44:48.173Z,216.00
2022-07-25T04:45:47.246Z,216.00
2022-07-25T04:46:47.189Z,220.00
2022-07-25T04:47:47.170Z,220.00
2022-07-25T04:48:47.227Z,224.00
2022-07-25T04:49:47.133Z,224.00
2022-07-25T04:50:47.114Z,228.00
2022-07-25T04:51:47.097Z,228.00
2022-07-25T04:52:47.081Z,228.00
2022-07-25T04:53:47.065Z,236.00
2022-07-25T04:54:47.046Z,236.00
2022-07-25T04:55:47.026Z,236.00
2022-07-25T04:56:47.010Z,224.00
2022-07-25T04:57:46.996Z,220.00
2022-07-25T04:58:46.975Z,244.00
2022-07-25T04:59:46.955Z,232.00
2022-07-25T05:00:47.021Z,232.00
2022-07-25T05:01:46.964Z,236.00
2022-07-25T05:02:46.901Z,228.00
2022-07-25T05:03:50.088Z,208.00
2022-07-25T05:04:46.870Z,216.00
2022-07-25T05:05:46.884Z,196.00
2022-07-25T05:06:46.831Z,192.00
2022-07-25T05:07:46.816Z,188.00
2022-07-25T05:08:46.797Z,188.00
2022-07-25T05:09:46.776Z,184.00
2022-07-25T05:10:46.764Z,184.00
2022-07-25T05:11:49.470Z,180.00
2022-07-25T05:12:46.723Z,184.00
2022-07-25T05:13:46.706Z,188.00
2022-07-25T05:14:46.690Z,192.00
2022-07-25T05:15:46.673Z,196.00
2022-07-25T05:16:46.691Z,196.00
2022-07-25T05:17:46.638Z,188.00
2022-07-25T05:18:46.617Z,192.00
2022-07-25T05:19:46.601Z,188.00
2022-07-25T05:20:46.584Z,192.00
2022-07-25T05:21:46.569Z,204.00
2022-07-25T05:22:46.548Z,208.00
2022-07-25T05:23:46.535Z,200.00
2022-07-25T05:24:46.513Z,196.00
2022-07-25T05:25:48.349Z,200.00
2022-07-25T05:26:46.479Z,204.00
2022-07-25T05:27:46.460Z,208.00
2022-07-25T05:28:46.448Z,208.00
2022-07-25T05:29:46.428Z,212.00
2022-07-25T05:30:46.409Z,212.00
2022-07-25T05:31:46.520Z,212.00
2022-07-25T05:32:46.372Z,220.00
2022-07-25T05:33:46.356Z,224.00
2022-07-25T05:34:46.340Z,228.00
2022-07-25T05:35:46.324Z,240.00
2022-07-25T05:36:47.429Z,256.00
2022-07-25T05:37:46.301Z,252.00
2022-07-25T05:38:46.275Z,256.00
2022-07-25T05:39:46.256Z,260.00
2022-07-25T05:40:46.235Z,284.00
2022-07-25T05:41:46.220Z,288.00
2022-07-25T05:42:46.200Z,296.00
2022-07-25T05:43:46.187Z,284.00
2022-07-25T05:44:46.164Z,268.00
2022-07-25T05:45:46.151Z,276.00
2022-07-25T05:46:46.247Z,268.00
2022-07-25T05:47:46.110Z,272.00
2022-07-25T05:48:46.172Z,276.00
2022-07-25T05:49:46.075Z,284.00
2022-07-25T05:50:46.077Z,268.00
2022-07-25T05:51:46.045Z,272.00
2022-07-25T05:52:46.028Z,276.00
2022-07-25T05:53:46.006Z,276.00
2022-07-25T05:54:45.993Z,308.00
2022-07-25T05:55:45.971Z,312.00
2022-07-25T05:56:45.956Z,316.00
2022-07-25T05:57:45.944Z,300.00
2022-07-25T05:58:45.921Z,308.00
2022-07-25T05:59:45.905Z,332.00
2022-07-25T06:00:45.887Z,360.00
2022-07-25T06:01:45.942Z,352.00
2022-07-25T06:02:46.064Z,340.00
2022-07-25T06:03:45.834Z,352.00
2022-07-25T06:04:45.816Z,360.00
2022-07-25T06:05:45.801Z,356.00
2022-07-25T06:06:45.783Z,376.00
2022-07-25T06:07:48.215Z,368.00
2022-07-25T06:08:45.750Z,400.00
2022-07-25T06:09:45.733Z,368.00
2022-07-25T06:10:45.715Z,424.00
2022-07-25T06:11:51.005Z,424.00
2022-07-25T06:12:45.677Z,412.00
2022-07-25T06:13:45.661Z,380.00
2022-07-25T06:14:45.657Z,392.00
2022-07-25T06:15:45.626Z,412.00
2022-07-25T06:16:45.673Z,432.00
2022-07-25T06:17:45.597Z,432.00
2022-07-25T06:18:45.574Z,456.00
2022-07-25T06:19:45.560Z,476.00
2022-07-25T06:20:45.539Z,464.00
2022-07-25T06:21:45.522Z,500.00
2022-07-25T06:22:45.505Z,500.00
2022-07-25T06:23:45.487Z,484.00
2022-07-25T06:24:45.509Z,428.00
2022-07-25T06:25:50.000Z,392.00
2022-07-25T06:26:45.453Z,384.00
2022-07-25T06:27:45.418Z,396.00
2022-07-25T06:28:45.402Z,372.00
2022-07-25T06:29:45.388Z,376.00
2022-07-25T06:30:45.369Z,388.00
2022-07-25T06:31:46.903Z,336.00
2022-07-25T06:32:45.336Z,324.00
2022-07-25T06:33:45.315Z,372.00
2022-07-25T06:34:45.301Z,344.00
2022-07-25T06:35:45.284Z,308.00
2022-07-25T06:36:45.265Z,320.00
2022-07-25T06:37:45.247Z,408.00
2022-07-25T06:38:45.233Z,440.00
2022-07-25T06:39:46.189Z,472.00
2022-07-25T06:40:45.197Z,480.00
2022-07-25T06:41:45.188Z,464.00
2022-07-25T06:42:45.263Z,460.00
2022-07-25T06:43:45.196Z,424.00
2022-07-25T06:44:45.181Z,364.00
2022-07-25T06:45:45.209Z,356.00
2022-07-25T06:46:45.111Z,456.00
2022-07-25T06:47:45.076Z,608.00
2022-07-25T06:48:45.120Z,616.00
2022-07-25T06:49:45.042Z,560.00
2022-07-25T06:50:45.032Z,584.00
2022-07-25T06:51:45.006Z,472.00
2022-07-25T06:52:44.992Z,552.00
2022-07-25T06:53:44.975Z,440.00
2022-07-25T06:54:44.961Z,696.00
2022-07-25T06:55:44.942Z,484.00
2022-07-25T06:56:44.925Z,484.00
2022-07-25T06:57:44.911Z,572.00
2022-07-25T06:58:44.891Z,656.00
2022-07-25T06:59:44.875Z,860.00
2022-07-25T07:00:44.907Z,684.00
2022-07-25T07:01:49.535Z,912.00
2022-07-25T07:02:44.827Z,916.00
2022-07-25T07:03:44.896Z,836.00
2022-07-25T07:04:44.786Z,736.00
2022-07-25T07:05:44.777Z,720.00
2022-07-25T07:06:44.755Z,792.00
2022-07-25T07:07:47.764Z,844.00
2022-07-25T07:08:44.718Z,828.00
2022-07-25T07:09:44.714Z,824.00
2022-07-25T07:10:44.688Z,880.00
2022-07-25T07:11:44.672Z,896.00
2022-07-25T07:12:44.655Z,740.00
2022-07-25T07:13:44.637Z,756.00
2022-07-25T07:14:44.619Z,716.00
2022-07-25T07:15:44.688Z,744.00
2022-07-25T07:16:44.651Z,744.00
2022-07-25T07:17:44.571Z,788.00
2022-07-25T07:18:48.843Z,852.00
2022-07-25T07:19:44.614Z,940.00
2022-07-25T07:20:44.523Z,880.00
2022-07-25T07:21:44.510Z,856.00
2022-07-25T07:22:44.489Z,860.00
2022-07-25T07:23:44.473Z,856.00
2022-07-25T07:24:45.239Z,936.00
2022-07-25T07:25:44.447Z,868.00
2022-07-25T07:26:44.423Z,840.00
2022-07-25T07:27:44.409Z,884.00
2022-07-25T07:28:44.391Z,948.00
2022-07-25T07:29:44.374Z,980.00
2022-07-25T07:31:15.611Z,892.00
2022-07-25T07:31:44.377Z,908.00
2022-07-25T07:32:44.321Z,844.00
2022-07-25T07:33:44.307Z,800.00
2022-07-25T07:34:44.291Z,828.00
2022-07-25T07:35:44.276Z,828.00
2022-07-25T07:36:44.256Z,840.00
2022-07-25T07:37:44.244Z,800.00
2022-07-25T07:38:44.227Z,788.00
2022-07-25T07:39:44.209Z,780.00
2022-07-25T07:40:44.195Z,788.00
2022-07-25T07:41:44.184Z,796.00
2022-07-25T07:42:44.170Z,820.00
2022-07-25T07:43:44.149Z,840.00
2022-07-25T07:44:44.128Z,812.00
2022-07-25T07:45:44.113Z,792.00
2022-07-25T07:46:44.146Z,764.00
2022-07-25T07:47:44.082Z,756.00
2022-07-25T07:48:44.131Z,736.00
2022-07-25T07:49:48.418Z,740.00
2022-07-25T07:50:44.030Z,720.00
2022-07-25T07:51:44.017Z,708.00
2022-07-25T07:52:44.007Z,712.00
2022-07-25T07:53:43.993Z,712.00
2022-07-25T07:54:43.970Z,736.00
2022-07-25T07:55:43.969Z,744.00
2022-07-25T07:56:43.935Z,768.00
2022-07-25T07:57:43.920Z,784.00
2022-07-25T07:58:43.907Z,816.00
2022-07-25T07:59:43.895Z,828.00
2022-07-25T08:00:43.873Z,852.00
2022-07-25T08:01:43.921Z,860.00
2022-07-25T08:02:43.962Z,892.00
2022-07-25T08:03:43.828Z,904.00
2022-07-25T08:04:43.807Z,948.00
2022-07-25T08:05:43.802Z,988.00
2022-07-25T08:06:43.778Z,1040.00
2022-07-25T08:07:43.765Z,1092.00
2022-07-25T08:08:43.756Z,1144.00
2022-07-25T08:09:43.735Z,1316.00
2022-07-25T08:10:43.725Z,1436.00
2022-07-25T08:11:43.709Z,1208.00
2022-07-25T08:12:43.683Z,1104.00
2022-07-25T08:13:43.668Z,976.00
2022-07-25T08:14:43.651Z,936.00
2022-07-25T08:15:43.689Z,1008.00
2022-07-25T08:16:43.622Z,1140.00
2022-07-25T08:17:43.606Z,1144.00
2022-07-25T08:18:43.590Z,1080.00
2022-07-25T08:19:43.576Z,976.00
2022-07-25T08:20:43.558Z,940.00
2022-07-25T08:21:43.546Z,1008.00
2022-07-25T08:22:43.528Z,1084.00
2022-07-25T08:23:43.512Z,928.00
2022-07-25T08:24:43.496Z,900.00
2022-07-25T08:25:43.482Z,908.00
2022-07-25T08:26:43.465Z,948.00
2022-07-25T08:27:43.451Z,856.00
2022-07-25T08:28:43.443Z,848.00
2022-07-25T08:29:43.421Z,820.00
2022-07-25T08:30:43.406Z,804.00
2022-07-25T08:31:43.462Z,772.00
2022-07-25T08:32:43.372Z,744.00
2022-07-25T08:33:43.356Z,740.00
2022-07-25T08:34:43.339Z,740.00
2022-07-25T08:35:43.326Z,752.00
2022-07-25T08:36:43.310Z,756.00
2022-07-25T08:37:43.294Z,760.00
2022-07-25T08:38:43.279Z,764.00
2022-07-25T08:39:43.264Z,768.00
2022-07-25T08:40:43.247Z,772.00
2022-07-25T08:41:43.231Z,764.00
2022-07-25T08:42:43.217Z,784.00
2022-07-25T08:43:43.201Z,748.00
2022-07-25T08:44:43.186Z,752.00
2022-07-25T08:45:43.169Z,764.00
2022-07-25T08:46:43.233Z,772.00
2022-07-25T08:47:43.145Z,792.00
2022-07-25T08:48:43.198Z,776.00
2022-07-25T08:49:43.106Z,768.00
2022-07-25T08:50:43.089Z,764.00
2022-07-25T08:51:43.086Z,784.00
2022-07-25T08:52:43.058Z,800.00
2022-07-25T08:53:43.083Z,896.00
2022-07-25T08:54:43.036Z,900.00
2022-07-25T08:55:43.014Z,892.00
2022-07-25T08:56:43.000Z,996.00
2022-07-25T08:57:42.983Z,948.00
2022-07-25T08:58:44.044Z,1068.00
2022-07-25T08:59:42.956Z,1036.00
2022-07-25T09:00:42.935Z,932.00
2022-07-25T09:01:42.994Z,1292.00
2022-07-25T09:02:42.940Z,1180.00
2022-07-25T09:03:42.898Z,912.00
2022-07-25T09:04:42.873Z,888.00
2022-07-25T09:05:42.859Z,1108.00
2022-07-25T09:06:42.843Z,1240.00
2022-07-25T09:07:42.828Z,1292.00
2022-07-25T09:08:42.811Z,1264.00
2022-07-25T09:09:42.796Z,1380.00
2022-07-25T09:10:42.780Z,1232.00
2022-07-25T09:11:42.767Z,1228.00
2022-07-25T09:12:42.748Z,1212.00
2022-07-25T09:13:42.742Z,836.00
2022-07-25T09:14:42.718Z,1124.00
2022-07-25T09:15:42.722Z,804.00
2022-07-25T09:16:42.693Z,1024.00
2022-07-25T09:17:42.672Z,1428.00
2022-07-25T09:18:42.658Z,1532.00
2022-07-25T09:19:42.648Z,1576.00
2022-07-25T09:20:42.628Z,2236.00
2022-07-25T09:21:42.615Z,2268.00
2022-07-25T09:22:42.599Z,2180.00
2022-07-25T09:23:42.586Z,2252.00
2022-07-25T09:24:42.571Z,2380.00
2022-07-25T09:25:42.554Z,2180.00
2022-07-25T09:26:42.537Z,1744.00
2022-07-25T09:27:42.523Z,1336.00
2022-07-25T09:28:42.508Z,1272.00
2022-07-25T09:29:42.549Z,1676.00
2022-07-25T09:30:42.548Z,1868.00
2022-07-25T09:31:42.521Z,2216.00
2022-07-25T09:32:42.448Z,1972.00
2022-07-25T09:33:42.437Z,1516.00
2022-07-25T09:34:42.424Z,1320.00
2022-07-25T09:35:42.405Z,1384.00
2022-07-25T09:36:42.391Z,1744.00
2022-07-25T09:37:42.374Z,1736.00
2022-07-25T09:38:42.360Z,1300.00
2022-07-25T09:39:46.417Z,2404.00
2022-07-25T09:40:42.337Z,2216.00
2022-07-25T09:41:42.319Z,1788.00
2022-07-25T09:42:42.299Z,1348.00
2022-07-25T09:43:42.287Z,1920.00
2022-07-25T09:44:42.319Z,2412.00
2022-07-25T09:45:42.258Z,1904.00
2022-07-25T09:46:42.341Z,1084.00
2022-07-25T09:47:42.227Z,2768.00
2022-07-25T09:48:42.261Z,972.00
2022-07-25T09:49:42.197Z,2916.00
2022-07-25T09:50:42.181Z,2076.00
2022-07-25T09:51:42.169Z,2728.00
2022-07-25T09:52:42.153Z,2604.00
2022-07-25T09:53:42.137Z,2544.00
2022-07-25T09:54:42.122Z,2520.00
2022-07-25T09:55:42.113Z,2536.00
2022-07-25T09:56:42.100Z,2524.00
2022-07-25T09:57:42.082Z,2496.00
2022-07-25T09:58:42.068Z,2504.00
2022-07-25T09:59:42.054Z,2496.00
2022-07-25T10:00:42.070Z,2496.00
2022-07-25T10:01:42.085Z,2496.00
2022-07-25T10:02:42.114Z,2532.00
2022-07-25T10:03:41.995Z,2640.00
2022-07-25T10:04:41.986Z,1840.00
2022-07-25T10:05:41.967Z,1312.00
2022-07-25T10:06:41.953Z,3056.00
2022-07-25T10:07:41.940Z,3128.00
2022-07-25T10:08:41.922Z,2068.00
2022-07-25T10:09:41.913Z,1472.00
2022-07-25T10:10:41.895Z,1492.00
2022-07-25T10:11:41.882Z,1604.00
2022-07-25T10:12:41.871Z,1832.00
2022-07-25T10:13:41.856Z,1952.00
2022-07-25T10:14:41.846Z,1640.00
2022-07-25T10:15:41.827Z,2676.00
2022-07-25T10:16:41.865Z,2284.00
2022-07-25T10:17:41.798Z,2092.00
2022-07-25T10:18:41.784Z,1972.00
2022-07-25T10:19:45.889Z,1972.00
2022-07-25T10:20:41.757Z,1948.00
2022-07-25T10:21:41.742Z,2624.00
2022-07-25T10:22:57.903Z,1032.00
2022-07-25T10:23:41.714Z,2228.00
2022-07-25T10:24:41.697Z,2808.00
2022-07-25T10:25:45.804Z,2440.00
2022-07-25T10:26:41.672Z,1924.00
2022-07-25T10:27:41.668Z,2888.00
2022-07-25T10:28:41.661Z,2100.00
2022-07-25T10:29:41.628Z,2680.00
2022-07-25T10:30:41.663Z,2324.00
2022-07-25T10:31:46.099Z,2340.00
2022-07-25T10:32:41.590Z,2856.00
2022-07-25T10:33:41.581Z,1892.00
2022-07-25T10:34:41.560Z,1452.00
2022-07-25T10:35:41.549Z,1172.00
2022-07-25T10:36:41.533Z,1112.00
2022-07-25T10:37:44.737Z,1028.00
2022-07-25T10:38:41.508Z,976.00
2022-07-25T10:39:41.493Z,924.00
2022-07-25T10:40:41.478Z,868.00
2022-07-25T10:41:41.463Z,844.00
2022-07-25T10:42:41.451Z,840.00
2022-07-25T10:43:43.668Z,880.00
2022-07-25T10:44:41.422Z,948.00
2022-07-25T10:45:41.497Z,1076.00
2022-07-25T10:46:41.457Z,1120.00
2022-07-25T10:47:41.381Z,1524.00
2022-07-25T10:48:41.433Z,1652.00
2022-07-25T10:50:00.051Z,1424.00
2022-07-25T10:50:55.426Z,1272.00
2022-07-25T10:51:42.204Z,1248.00
2022-07-25T10:52:41.307Z,1184.00
2022-07-25T10:53:41.294Z,1072.00
2022-07-25T10:54:41.283Z,960.00
2022-07-25T10:55:41.269Z,896.00
2022-07-25T10:56:41.253Z,856.00
2022-07-25T10:57:55.065Z,844.00
2022-07-25T10:58:41.225Z,856.00
2022-07-25T10:59:41.209Z,888.00
2022-07-25T11:00:41.196Z,948.00
2022-07-25T11:01:41.346Z,1008.00
2022-07-25T11:02:41.249Z,888.00
2022-07-25T11:03:41.154Z,912.00
2022-07-25T11:04:41.139Z,1004.00
2022-07-25T11:05:41.126Z,1128.00
2022-07-25T11:06:41.110Z,2416.00
2022-07-25T11:07:42.472Z,2008.00
2022-07-25T11:08:41.086Z,2280.00
2022-07-25T11:09:41.070Z,2048.00
2022-07-25T11:10:41.053Z,2560.00
2022-07-25T11:11:41.070Z,2008.00
2022-07-25T11:12:41.024Z,2384.00
2022-07-25T11:13:41.009Z,1896.00
2022-07-25T11:14:40.995Z,2596.00
2022-07-25T11:15:40.984Z,2024.00
2022-07-25T11:16:41.017Z,1588.00
2022-07-25T11:17:40.951Z,2216.00
2022-07-25T11:18:40.951Z,2152.00
2022-07-25T11:19:40.931Z,2084.00
2022-07-25T11:20:40.913Z,2476.00
2022-07-25T11:21:40.913Z,2448.00
2022-07-25T11:22:40.888Z,2572.00
2022-07-25T11:23:40.868Z,2560.00
2022-07-25T11:24:40.854Z,2552.00
2022-07-25T11:25:40.840Z,2484.00
2022-07-25T11:26:40.828Z,2508.00
2022-07-25T11:27:40.814Z,2504.00
2022-07-25T11:28:40.800Z,2548.00
2022-07-25T11:29:40.784Z,2556.00
2022-07-25T11:30:40.771Z,2584.00
2022-07-25T11:31:40.824Z,2572.00
2022-07-25T11:32:40.743Z,2556.00
2022-07-25T11:33:40.727Z,2520.00
2022-07-25T11:34:40.717Z,2508.00
2022-07-25T11:35:40.703Z,2544.00
2022-07-25T11:36:40.688Z,2636.00
2022-07-25T11:37:40.673Z,2756.00
2022-07-25T11:38:40.662Z,2880.00
2022-07-25T11:39:40.649Z,2968.00
2022-07-25T11:40:40.645Z,2280.00
2022-07-25T11:41:40.619Z,2660.00
2022-07-25T11:42:40.609Z,2776.00
2022-07-25T11:43:40.594Z,2748.00
2022-07-25T11:44:45.525Z,2700.00
2022-07-25T11:45:40.620Z,2568.00
2022-07-25T11:46:40.555Z,2676.00
2022-07-25T11:47:40.540Z,2916.00
2022-07-25T11:48:40.595Z,3036.00
2022-07-25T11:49:40.515Z,2484.00
2022-07-25T11:50:40.501Z,1980.00
2022-07-25T11:51:40.487Z,2244.00
2022-07-25T11:52:40.476Z,1696.00
2022-07-25T11:53:40.463Z,1960.00
2022-07-25T11:54:40.448Z,2656.00
2022-07-25T11:55:40.438Z,2016.00
2022-07-25T11:56:42.844Z,1768.00
2022-07-25T11:57:40.406Z,3128.00
2022-07-25T11:58:40.394Z,1688.00
2022-07-25T11:59:40.393Z,1376.00
2022-07-25T12:00:40.372Z,1500.00
2022-07-25T12:01:40.359Z,2936.00
2022-07-25T12:02:40.480Z,2720.00
2022-07-25T12:03:40.446Z,2036.00
2022-07-25T12:04:40.320Z,1624.00
2022-07-25T12:05:40.312Z,2896.00
2022-07-25T12:06:40.287Z,2172.00
2022-07-25T12:07:40.287Z,3012.00
2022-07-25T12:08:40.259Z,2936.00
2022-07-25T12:09:40.244Z,2564.00
2022-07-25T12:10:40.232Z,2196.00
2022-07-25T12:11:40.217Z,1800.00
2022-07-25T12:12:40.205Z,1620.00
2022-07-25T12:13:40.192Z,1692.00
2022-07-25T12:14:40.182Z,1820.00
2022-07-25T12:15:40.163Z,1604.00
2022-07-25T12:16:40.213Z,1776.00
2022-07-25T12:17:40.144Z,1996.00
2022-07-25T12:18:40.125Z,1556.00
2022-07-25T12:19:40.115Z,1664.00
2022-07-25T12:20:40.098Z,1352.00
2022-07-25T12:21:40.083Z,1352.00
2022-07-25T12:22:40.070Z,1548.00
2022-07-25T12:23:40.058Z,1936.00
2022-07-25T12:24:40.047Z,1468.00
2022-07-25T12:25:40.030Z,2568.00
2022-07-25T12:26:40.019Z,2568.00
2022-07-25T12:27:40.010Z,2576.00
2022-07-25T12:28:40.000Z,2456.00
2022-07-25T12:29:39.976Z,2236.00
2022-07-25T12:30:40.048Z,2072.00
2022-07-25T12:31:39.979Z,1892.00
2022-07-25T12:32:39.937Z,1864.00
2022-07-25T12:33:39.921Z,2884.00
2022-07-25T12:34:39.910Z,2948.00
2022-07-25T12:35:39.897Z,2576.00
2022-07-25T12:36:39.885Z,2552.00